sensor_id;sensor_type;location;lat;lon;timestamp;temperature;humidity
18733;DHT22;9495;51.210;2.934;2023-01-24T00:00:03;4.80;99.90
18733;DHT22;9495;51.210;2.934;2023-01-24T00:02:32;4.80;99.90
18733;DHT22;9495;51.210;2.934;2023-01-24T00:05:00;4.80;99.90
18733;DHT22;9495;51.210;2.934;2023-01-24T00:07:28;4.80;99.90
18733;DHT22;9495;51.210;2.934;2023-01-24T00:09:57;4.80;99.90
18733;DHT22;9495;51.210;2.934;2023-01-24T00:12:25;4.80;99.90
18733;DHT22;9495;51.210;2.934;2023-01-24T00:14:54;4.80;99.90
18733;DHT22;9495;51.210;2.934;2023-01-24T00:17:26;4.80;99.90
18733;DHT22;9495;51.210;2.934;2023-01-24T00:19:54;4.80;99.90
18733;DHT22;9495;51.210;2.934;2023-01-24T00:22:23;4.70;99.90
18733;DHT22;9495;51.210;2.934;2023-01-24T00:24:51;4.70;99.90
18733;DHT22;9495;51.210;2.934;2023-01-24T00:27:19;4.70;99.90
18733;DHT22;9495;51.210;2.934;2023-01-24T00:29:48;4.70;99.90
18733;DHT22;9495;51.210;2.934;2023-01-24T00:32:16;4.70;99.90
18733;DHT22;9495;51.210;2.934;2023-01-24T00:34:46;4.70;99.90
18733;DHT22;9495;51.210;2.934;2023-01-24T00:37:15;4.70;99.90
18733;DHT22;9495;51.210;2.934;2023-01-24T00:39:43;4.70;99.90
18733;DHT22;9495;51.210;2.934;2023-01-24T00:42:12;4.70;99.90
18733;DHT22;9495;51.210;2.934;2023-01-24T00:44:40;4.60;99.90
18733;DHT22;9495;51.210;2.934;2023-01-24T00:47:08;4.60;99.90
18733;DHT22;9495;51.210;2.934;2023-01-24T00:49:37;4.70;99.90
18733;DHT22;9495;51.210;2.934;2023-01-24T00:52:07;4.60;99.90
18733;DHT22;9495;51.210;2.934;2023-01-24T00:54:35;4.70;99.90
18733;DHT22;9495;51.210;2.934;2023-01-24T00:57:04;4.60;99.90
18733;DHT22;9495;51.210;2.934;2023-01-24T00:59:32;4.60;99.90
18733;DHT22;9495;51.210;2.934;2023-01-24T01:02:00;4.60;99.90
18733;DHT22;9495;51.210;2.934;2023-01-24T01:04:29;4.60;99.90
18733;DHT22;9495;51.210;2.934;2023-01-24T01:06:57;4.50;99.90
18733;DHT22;9495;51.210;2.934;2023-01-24T01:09:27;4.70;99.90
18733;DHT22;9495;51.210;2.934;2023-01-24T01:11:55;4.60;99.90
18733;DHT22;9495;51.210;2.934;2023-01-24T01:14:24;4.60;99.90
18733;DHT22;9495;51.210;2.934;2023-01-24T01:16:52;4.60;99.90
18733;DHT22;9495;51.210;2.934;2023-01-24T01:19:21;4.60;99.90
18733;DHT22;9495;51.210;2.934;2023-01-24T01:21:49;4.60;99.90
18733;DHT22;9495;51.210;2.934;2023-01-24T01:24:17;4.60;99.90
18733;DHT22;9495;51.210;2.934;2023-01-24T01:26:47;4.50;99.90
18733;DHT22;9495;51.210;2.934;2023-01-24T01:29:16;4.50;99.90
18733;DHT22;9495;51.210;2.934;2023-01-24T01:31:44;4.60;99.90
18733;DHT22;9495;51.210;2.934;2023-01-24T01:34:12;4.50;99.90
18733;DHT22;9495;51.210;2.934;2023-01-24T01:36:41;4.70;99.90
18733;DHT22;9495;51.210;2.934;2023-01-24T01:39:10;4.70;99.90
18733;DHT22;9495;51.210;2.934;2023-01-24T01:41:38;4.60;99.90
18733;DHT22;9495;51.210;2.934;2023-01-24T01:44:19;4.50;99.90
18733;DHT22;9495;51.210;2.934;2023-01-24T01:47:16;4.50;99.90
18733;DHT22;9495;51.210;2.934;2023-01-24T01:49:50;4.50;99.90
18733;DHT22;9495;51.210;2.934;2023-01-24T01:52:20;4.50;99.90
18733;DHT22;9495;51.210;2.934;2023-01-24T01:54:51;4.50;99.90
18733;DHT22;9495;51.210;2.934;2023-01-24T01:57:23;4.50;99.90
18733;DHT22;9495;51.210;2.934;2023-01-24T01:59:56;4.70;99.90
18733;DHT22;9495;51.210;2.934;2023-01-24T02:02:26;4.60;99.90
18733;DHT22;9495;51.210;2.934;2023-01-24T02:04:58;4.60;99.90
18733;DHT22;9495;51.210;2.934;2023-01-24T02:07:32;4.60;99.90
18733;DHT22;9495;51.210;2.934;2023-01-24T02:10:03;4.50;99.90
18733;DHT22;9495;51.210;2.934;2023-01-24T02:12:33;4.50;99.90
18733;DHT22;9495;51.210;2.934;2023-01-24T02:15:07;4.50;99.90
18733;DHT22;9495;51.210;2.934;2023-01-24T02:17:54;4.50;99.90
18733;DHT22;9495;51.210;2.934;2023-01-24T02:20:30;4.40;99.90
18733;DHT22;9495;51.210;2.934;2023-01-24T02:23:12;4.50;99.90
18733;DHT22;9495;51.210;2.934;2023-01-24T02:25:46;4.50;99.90
18733;DHT22;9495;51.210;2.934;2023-01-24T02:28:17;4.40;99.90
18733;DHT22;9495;51.210;2.934;2023-01-24T02:30:45;4.40;99.90
18733;DHT22;9495;51.210;2.934;2023-01-24T02:33:17;4.40;99.90
18733;DHT22;9495;51.210;2.934;2023-01-24T02:35:48;4.40;99.90
18733;DHT22;9495;51.210;2.934;2023-01-24T02:38:19;4.40;99.90
18733;DHT22;9495;51.210;2.934;2023-01-24T02:40:51;4.40;99.90
18733;DHT22;9495;51.210;2.934;2023-01-24T02:43:26;4.50;99.90
18733;DHT22;9495;51.210;2.934;2023-01-24T02:45:56;4.50;99.90
18733;DHT22;9495;51.210;2.934;2023-01-24T02:48:24;4.50;99.90
18733;DHT22;9495;51.210;2.934;2023-01-24T02:50:53;4.50;99.90
18733;DHT22;9495;51.210;2.934;2023-01-24T02:53:39;4.40;99.90
18733;DHT22;9495;51.210;2.934;2023-01-24T02:56:09;4.30;99.90
18733;DHT22;9495;51.210;2.934;2023-01-24T02:58:56;4.40;99.90
18733;DHT22;9495;51.210;2.934;2023-01-24T03:01:24;4.40;99.90
18733;DHT22;9495;51.210;2.934;2023-01-24T03:03:54;4.30;99.90
18733;DHT22;9495;51.210;2.934;2023-01-24T03:06:23;4.40;99.90
18733;DHT22;9495;51.210;2.934;2023-01-24T03:08:51;4.30;99.90
18733;DHT22;9495;51.210;2.934;2023-01-24T03:11:19;4.30;99.90
18733;DHT22;9495;51.210;2.934;2023-01-24T03:13:48;4.30;99.90
18733;DHT22;9495;51.210;2.934;2023-01-24T03:16:35;4.30;99.90
18733;DHT22;9495;51.210;2.934;2023-01-24T03:19:21;4.30;99.90
18733;DHT22;9495;51.210;2.934;2023-01-24T03:22:07;4.30;99.90
18733;DHT22;9495;51.210;2.934;2023-01-24T03:24:53;4.40;99.90
18733;DHT22;9495;51.210;2.934;2023-01-24T03:27:38;4.40;99.90
18733;DHT22;9495;51.210;2.934;2023-01-24T03:30:24;4.40;99.90
18733;DHT22;9495;51.210;2.934;2023-01-24T03:33:11;4.30;99.90
18733;DHT22;9495;51.210;2.934;2023-01-24T03:35:58;4.30;99.90
18733;DHT22;9495;51.210;2.934;2023-01-24T03:38:28;4.30;99.90
18733;DHT22;9495;51.210;2.934;2023-01-24T03:41:14;4.30;99.90
18733;DHT22;9495;51.210;2.934;2023-01-24T03:43:42;4.30;99.90
18733;DHT22;9495;51.210;2.934;2023-01-24T03:46:11;4.20;99.90
18733;DHT22;9495;51.210;2.934;2023-01-24T03:48:41;4.20;99.90
18733;DHT22;9495;51.210;2.934;2023-01-24T03:51:09;4.30;99.90
18733;DHT22;9495;51.210;2.934;2023-01-24T03:53:55;4.30;99.90
18733;DHT22;9495;51.210;2.934;2023-01-24T03:56:24;4.30;99.90
18733;DHT22;9495;51.210;2.934;2023-01-24T03:58:53;4.40;99.90
18733;DHT22;9495;51.210;2.934;2023-01-24T04:01:21;4.30;99.90
18733;DHT22;9495;51.210;2.934;2023-01-24T04:03:51;4.30;99.90
18733;DHT22;9495;51.210;2.934;2023-01-24T04:06:19;4.30;99.90
18733;DHT22;9495;51.210;2.934;2023-01-24T04:08:48;4.30;99.90
18733;DHT22;9495;51.210;2.934;2023-01-24T04:11:16;4.30;99.90
18733;DHT22;9495;51.210;2.934;2023-01-24T04:13:46;4.30;99.90
18733;DHT22;9495;51.210;2.934;2023-01-24T04:16:14;4.30;99.90
18733;DHT22;9495;51.210;2.934;2023-01-24T04:18:43;4.40;99.90
18733;DHT22;9495;51.210;2.934;2023-01-24T04:21:13;4.30;99.90
18733;DHT22;9495;51.210;2.934;2023-01-24T04:23:41;4.30;99.90
18733;DHT22;9495;51.210;2.934;2023-01-24T04:26:09;4.30;99.90
18733;DHT22;9495;51.210;2.934;2023-01-24T04:28:38;4.20;99.90
18733;DHT22;9495;51.210;2.934;2023-01-24T04:31:07;4.20;99.90
18733;DHT22;9495;51.210;2.934;2023-01-24T04:33:36;4.20;99.90
18733;DHT22;9495;51.210;2.934;2023-01-24T04:36:05;4.30;99.90
18733;DHT22;9495;51.210;2.934;2023-01-24T04:38:37;4.20;99.90
18733;DHT22;9495;51.210;2.934;2023-01-24T04:41:06;4.10;99.90
18733;DHT22;9495;51.210;2.934;2023-01-24T04:43:39;4.20;99.90
18733;DHT22;9495;51.210;2.934;2023-01-24T04:46:07;4.20;99.90
18733;DHT22;9495;51.210;2.934;2023-01-24T04:48:39;4.30;99.90
18733;DHT22;9495;51.210;2.934;2023-01-24T04:51:07;4.30;99.90
18733;DHT22;9495;51.210;2.934;2023-01-24T04:53:39;4.30;99.90
18733;DHT22;9495;51.210;2.934;2023-01-24T04:56:08;4.30;99.90
18733;DHT22;9495;51.210;2.934;2023-01-24T04:58:41;4.30;99.90
18733;DHT22;9495;51.210;2.934;2023-01-24T05:01:09;4.20;99.90
18733;DHT22;9495;51.210;2.934;2023-01-24T05:03:37;4.20;99.90
18733;DHT22;9495;51.210;2.934;2023-01-24T05:06:05;4.20;99.90
18733;DHT22;9495;51.210;2.934;2023-01-24T05:08:34;4.10;99.90
18733;DHT22;9495;51.210;2.934;2023-01-24T05:11:04;4.10;99.90
18733;DHT22;9495;51.210;2.934;2023-01-24T05:13:32;4.10;99.90
18733;DHT22;9495;51.210;2.934;2023-01-24T05:16:02;4.10;99.90
18733;DHT22;9495;51.210;2.934;2023-01-24T05:18:30;4.10;99.90
18733;DHT22;9495;51.210;2.934;2023-01-24T05:21:05;4.10;99.90
18733;DHT22;9495;51.210;2.934;2023-01-24T05:23:34;4.10;99.90
18733;DHT22;9495;51.210;2.934;2023-01-24T05:26:04;4.10;99.90
18733;DHT22;9495;51.210;2.934;2023-01-24T05:28:35;4.10;99.90
18733;DHT22;9495;51.210;2.934;2023-01-24T05:31:05;4.10;99.90
18733;DHT22;9495;51.210;2.934;2023-01-24T05:33:35;4.10;99.90
18733;DHT22;9495;51.210;2.934;2023-01-24T05:36:05;4.10;99.90
18733;DHT22;9495;51.210;2.934;2023-01-24T05:38:35;4.10;99.90
18733;DHT22;9495;51.210;2.934;2023-01-24T05:41:06;4.10;99.90
18733;DHT22;9495;51.210;2.934;2023-01-24T05:43:35;4.10;99.90
18733;DHT22;9495;51.210;2.934;2023-01-24T05:46:05;4.20;99.90
18733;DHT22;9495;51.210;2.934;2023-01-24T05:48:34;4.20;99.90
18733;DHT22;9495;51.210;2.934;2023-01-24T05:51:05;4.10;99.90
18733;DHT22;9495;51.210;2.934;2023-01-24T05:53:36;4.00;99.90
18733;DHT22;9495;51.210;2.934;2023-01-24T05:56:11;4.10;99.90
18733;DHT22;9495;51.210;2.934;2023-01-24T05:58:41;4.00;99.90
18733;DHT22;9495;51.210;2.934;2023-01-24T06:01:12;4.00;99.90
18733;DHT22;9495;51.210;2.934;2023-01-24T06:03:43;4.00;99.90
18733;DHT22;9495;51.210;2.934;2023-01-24T06:06:14;4.10;99.90
18733;DHT22;9495;51.210;2.934;2023-01-24T06:08:42;4.00;99.90
18733;DHT22;9495;51.210;2.934;2023-01-24T06:11:15;4.00;99.90
18733;DHT22;9495;51.210;2.934;2023-01-24T06:13:44;4.00;99.90
18733;DHT22;9495;51.210;2.934;2023-01-24T06:16:14;4.00;99.90
18733;DHT22;9495;51.210;2.934;2023-01-24T06:18:50;4.00;99.90
18733;DHT22;9495;51.210;2.934;2023-01-24T06:21:28;4.00;99.90
18733;DHT22;9495;51.210;2.934;2023-01-24T06:23:58;3.90;99.90
18733;DHT22;9495;51.210;2.934;2023-01-24T06:26:28;4.00;99.90
18733;DHT22;9495;51.210;2.934;2023-01-24T06:28:57;3.90;99.90
18733;DHT22;9495;51.210;2.934;2023-01-24T06:31:31;4.00;99.90
18733;DHT22;9495;51.210;2.934;2023-01-24T06:34:22;4.00;99.90
18733;DHT22;9495;51.210;2.934;2023-01-24T06:37:04;4.00;99.90
18733;DHT22;9495;51.210;2.934;2023-01-24T06:39:41;4.00;99.90
18733;DHT22;9495;51.210;2.934;2023-01-24T06:42:18;4.00;99.90
18733;DHT22;9495;51.210;2.934;2023-01-24T06:44:47;3.90;99.90
18733;DHT22;9495;51.210;2.934;2023-01-24T06:47:16;4.00;99.90
18733;DHT22;9495;51.210;2.934;2023-01-24T06:49:45;4.00;99.90
18733;DHT22;9495;51.210;2.934;2023-01-24T06:52:13;4.00;99.90
18733;DHT22;9495;51.210;2.934;2023-01-24T06:54:42;4.00;99.90
18733;DHT22;9495;51.210;2.934;2023-01-24T06:57:10;4.00;99.90
18733;DHT22;9495;51.210;2.934;2023-01-24T06:59:40;3.90;99.90
18733;DHT22;9495;51.210;2.934;2023-01-24T07:02:09;4.00;99.90
18733;DHT22;9495;51.210;2.934;2023-01-24T07:04:38;4.00;99.90
18733;DHT22;9495;51.210;2.934;2023-01-24T07:07:06;4.00;99.90
18733;DHT22;9495;51.210;2.934;2023-01-24T07:09:34;4.00;99.90
18733;DHT22;9495;51.210;2.934;2023-01-24T07:12:03;4.00;99.90
18733;DHT22;9495;51.210;2.934;2023-01-24T07:14:31;4.00;99.90
18733;DHT22;9495;51.210;2.934;2023-01-24T07:17:01;3.90;99.90
18733;DHT22;9495;51.210;2.934;2023-01-24T07:19:30;3.90;99.90
18733;DHT22;9495;51.210;2.934;2023-01-24T07:21:59;3.90;99.90
18733;DHT22;9495;51.210;2.934;2023-01-24T07:24:29;4.00;99.90
18733;DHT22;9495;51.210;2.934;2023-01-24T07:26:58;3.90;99.90
18733;DHT22;9495;51.210;2.934;2023-01-24T07:29:26;4.00;99.90
18733;DHT22;9495;51.210;2.934;2023-01-24T07:31:55;4.00;99.90
18733;DHT22;9495;51.210;2.934;2023-01-24T07:34:25;4.00;99.90
18733;DHT22;9495;51.210;2.934;2023-01-24T07:36:53;4.00;99.90
18733;DHT22;9495;51.210;2.934;2023-01-24T07:39:22;3.90;99.90
18733;DHT22;9495;51.210;2.934;2023-01-24T07:41:50;4.00;99.90
18733;DHT22;9495;51.210;2.934;2023-01-24T07:44:19;4.10;99.90
18733;DHT22;9495;51.210;2.934;2023-01-24T07:46:47;4.00;99.90
18733;DHT22;9495;51.210;2.934;2023-01-24T07:49:16;4.00;99.90
18733;DHT22;9495;51.210;2.934;2023-01-24T07:51:45;3.90;99.90
18733;DHT22;9495;51.210;2.934;2023-01-24T07:54:15;3.80;99.90
18733;DHT22;9495;51.210;2.934;2023-01-24T07:56:45;4.00;99.90
18733;DHT22;9495;51.210;2.934;2023-01-24T07:59:14;3.90;99.90
18733;DHT22;9495;51.210;2.934;2023-01-24T08:01:44;3.90;99.90
18733;DHT22;9495;51.210;2.934;2023-01-24T08:04:12;3.90;99.90
18733;DHT22;9495;51.210;2.934;2023-01-24T08:06:41;3.90;99.90
18733;DHT22;9495;51.210;2.934;2023-01-24T08:09:31;3.90;99.90
18733;DHT22;9495;51.210;2.934;2023-01-24T08:11:59;3.90;99.90
18733;DHT22;9495;51.210;2.934;2023-01-24T08:14:28;3.90;99.90
18733;DHT22;9495;51.210;2.934;2023-01-24T08:16:56;3.90;99.90
18733;DHT22;9495;51.210;2.934;2023-01-24T08:19:24;3.90;99.90
18733;DHT22;9495;51.210;2.934;2023-01-24T08:22:13;3.90;99.90
18733;DHT22;9495;51.210;2.934;2023-01-24T08:24:43;4.00;99.90
18733;DHT22;9495;51.210;2.934;2023-01-24T08:27:11;3.90;99.90
18733;DHT22;9495;51.210;2.934;2023-01-24T08:29:40;3.90;99.90
18733;DHT22;9495;51.210;2.934;2023-01-24T08:32:08;4.00;99.90
18733;DHT22;9495;51.210;2.934;2023-01-24T08:34:37;3.90;99.90
18733;DHT22;9495;51.210;2.934;2023-01-24T08:37:05;3.90;99.90
18733;DHT22;9495;51.210;2.934;2023-01-24T08:39:34;3.90;99.90
18733;DHT22;9495;51.210;2.934;2023-01-24T08:42:04;4.00;99.90
18733;DHT22;9495;51.210;2.934;2023-01-24T08:44:32;3.90;99.90
18733;DHT22;9495;51.210;2.934;2023-01-24T08:47:00;4.00;99.90
18733;DHT22;9495;51.210;2.934;2023-01-24T08:49:29;4.00;99.90
18733;DHT22;9495;51.210;2.934;2023-01-24T08:51:57;4.00;99.90
18733;DHT22;9495;51.210;2.934;2023-01-24T08:54:27;4.00;99.90
18733;DHT22;9495;51.210;2.934;2023-01-24T08:56:56;4.10;99.90
18733;DHT22;9495;51.210;2.934;2023-01-24T08:59:26;4.00;99.90
18733;DHT22;9495;51.210;2.934;2023-01-24T09:01:54;3.90;99.90
18733;DHT22;9495;51.210;2.934;2023-01-24T09:04:22;3.90;99.90
18733;DHT22;9495;51.210;2.934;2023-01-24T09:06:53;4.00;99.90
18733;DHT22;9495;51.210;2.934;2023-01-24T09:09:21;4.00;99.90
18733;DHT22;9495;51.210;2.934;2023-01-24T09:11:54;4.00;99.90
18733;DHT22;9495;51.210;2.934;2023-01-24T09:14:22;3.90;99.90
18733;DHT22;9495;51.210;2.934;2023-01-24T09:16:52;4.00;99.90
18733;DHT22;9495;51.210;2.934;2023-01-24T09:19:20;3.90;99.90
18733;DHT22;9495;51.210;2.934;2023-01-24T09:21:54;3.90;99.90
18733;DHT22;9495;51.210;2.934;2023-01-24T09:24:24;3.90;99.90
18733;DHT22;9495;51.210;2.934;2023-01-24T09:26:52;3.90;99.90
18733;DHT22;9495;51.210;2.934;2023-01-24T09:29:21;3.90;99.90
18733;DHT22;9495;51.210;2.934;2023-01-24T09:31:49;3.90;99.90
18733;DHT22;9495;51.210;2.934;2023-01-24T09:34:19;3.90;99.90
18733;DHT22;9495;51.210;2.934;2023-01-24T09:36:48;3.90;99.90
18733;DHT22;9495;51.210;2.934;2023-01-24T09:39:17;4.10;99.90
18733;DHT22;9495;51.210;2.934;2023-01-24T09:41:55;4.00;99.90
18733;DHT22;9495;51.210;2.934;2023-01-24T09:44:42;4.00;99.90
18733;DHT22;9495;51.210;2.934;2023-01-24T09:47:17;4.00;99.90
18733;DHT22;9495;51.210;2.934;2023-01-24T09:49:50;4.00;99.90
18733;DHT22;9495;51.210;2.934;2023-01-24T09:52:26;3.90;99.90
18733;DHT22;9495;51.210;2.934;2023-01-24T09:55:00;3.90;99.90
18733;DHT22;9495;51.210;2.934;2023-01-24T09:57:37;3.90;99.90
18733;DHT22;9495;51.210;2.934;2023-01-24T10:00:15;4.00;99.90
18733;DHT22;9495;51.210;2.934;2023-01-24T10:02:44;4.00;99.90
18733;DHT22;9495;51.210;2.934;2023-01-24T10:05:16;4.00;99.90
18733;DHT22;9495;51.210;2.934;2023-01-24T10:08:05;4.00;99.90
18733;DHT22;9495;51.210;2.934;2023-01-24T10:10:43;4.10;99.90
18733;DHT22;9495;51.210;2.934;2023-01-24T10:13:35;4.20;99.90
18733;DHT22;9495;51.210;2.934;2023-01-24T10:16:16;4.10;99.90
18733;DHT22;9495;51.210;2.934;2023-01-24T10:18:52;4.20;99.90
18733;DHT22;9495;51.210;2.934;2023-01-24T10:21:44;4.10;99.90
18733;DHT22;9495;51.210;2.934;2023-01-24T10:24:17;4.10;99.90
18733;DHT22;9495;51.210;2.934;2023-01-24T10:26:50;4.10;99.90
18733;DHT22;9495;51.210;2.934;2023-01-24T10:29:20;4.20;99.90
18733;DHT22;9495;51.210;2.934;2023-01-24T10:31:54;4.20;99.90
18733;DHT22;9495;51.210;2.934;2023-01-24T10:34:29;4.20;99.90
18733;DHT22;9495;51.210;2.934;2023-01-24T10:37:04;4.20;99.90
18733;DHT22;9495;51.210;2.934;2023-01-24T10:39:33;4.10;99.90
18733;DHT22;9495;51.210;2.934;2023-01-24T10:42:07;4.10;99.90
18733;DHT22;9495;51.210;2.934;2023-01-24T10:44:41;4.10;99.90
18733;DHT22;9495;51.210;2.934;2023-01-24T10:47:20;4.50;99.90
18733;DHT22;9495;51.210;2.934;2023-01-24T10:49:58;4.30;99.90
18733;DHT22;9495;51.210;2.934;2023-01-24T10:52:28;4.20;99.90
18733;DHT22;9495;51.210;2.934;2023-01-24T10:55:01;4.20;99.90
18733;DHT22;9495;51.210;2.934;2023-01-24T10:57:33;4.10;99.90
18733;DHT22;9495;51.210;2.934;2023-01-24T11:02:50;4.10;99.90
18733;DHT22;9495;51.210;2.934;2023-01-24T11:05:20;4.10;99.90
18733;DHT22;9495;51.210;2.934;2023-01-24T11:07:54;4.10;99.90
18733;DHT22;9495;51.210;2.934;2023-01-24T11:10:31;4.10;99.90
18733;DHT22;9495;51.210;2.934;2023-01-24T11:13:05;4.10;99.90
18733;DHT22;9495;51.210;2.934;2023-01-24T11:15:47;4.10;99.90
18733;DHT22;9495;51.210;2.934;2023-01-24T11:18:21;4.10;99.90
18733;DHT22;9495;51.210;2.934;2023-01-24T11:21:05;4.20;99.90
18733;DHT22;9495;51.210;2.934;2023-01-24T11:23:35;4.20;99.90
18733;DHT22;9495;51.210;2.934;2023-01-24T11:26:19;4.10;99.90
18733;DHT22;9495;51.210;2.934;2023-01-24T11:28:56;4.10;99.90
18733;DHT22;9495;51.210;2.934;2023-01-24T11:31:32;4.10;99.90
18733;DHT22;9495;51.210;2.934;2023-01-24T11:34:19;4.10;99.90
18733;DHT22;9495;51.210;2.934;2023-01-24T11:37:03;4.10;99.90
18733;DHT22;9495;51.210;2.934;2023-01-24T11:39:41;4.10;99.90
18733;DHT22;9495;51.210;2.934;2023-01-24T11:42:17;4.10;99.90
18733;DHT22;9495;51.210;2.934;2023-01-24T11:44:56;4.00;99.90
18733;DHT22;9495;51.210;2.934;2023-01-24T11:47:34;4.00;99.90
18733;DHT22;9495;51.210;2.934;2023-01-24T11:50:26;4.00;99.90
18733;DHT22;9495;51.210;2.934;2023-01-24T11:53:13;4.10;99.90
18733;DHT22;9495;51.210;2.934;2023-01-24T11:55:59;4.10;99.90
18733;DHT22;9495;51.210;2.934;2023-01-24T11:58:48;4.10;99.90
18733;DHT22;9495;51.210;2.934;2023-01-24T12:01:28;4.10;99.90
18733;DHT22;9495;51.210;2.934;2023-01-24T12:04:11;4.10;99.90
18733;DHT22;9495;51.210;2.934;2023-01-24T12:06:49;4.10;99.90
18733;DHT22;9495;51.210;2.934;2023-01-24T12:09:21;4.00;99.90
18733;DHT22;9495;51.210;2.934;2023-01-24T12:12:02;4.10;99.90
18733;DHT22;9495;51.210;2.934;2023-01-24T12:14:51;4.00;99.90
18733;DHT22;9495;51.210;2.934;2023-01-24T12:17:35;4.00;99.90
18733;DHT22;9495;51.210;2.934;2023-01-24T12:20:23;4.20;99.90
18733;DHT22;9495;51.210;2.934;2023-01-24T12:23:02;4.20;99.90
18733;DHT22;9495;51.210;2.934;2023-01-24T12:25:35;4.20;99.90
18733;DHT22;9495;51.210;2.934;2023-01-24T12:28:07;4.20;99.90
18733;DHT22;9495;51.210;2.934;2023-01-24T12:30:41;4.10;99.90
18733;DHT22;9495;51.210;2.934;2023-01-24T12:33:15;4.10;99.90
18733;DHT22;9495;51.210;2.934;2023-01-24T12:35:51;4.10;99.90
18733;DHT22;9495;51.210;2.934;2023-01-24T12:38:26;4.10;99.90
18733;DHT22;9495;51.210;2.934;2023-01-24T12:41:02;4.10;99.90
18733;DHT22;9495;51.210;2.934;2023-01-24T12:43:42;4.10;99.90
18733;DHT22;9495;51.210;2.934;2023-01-24T12:46:17;4.10;99.90
18733;DHT22;9495;51.210;2.934;2023-01-24T12:48:50;4.10;99.90
18733;DHT22;9495;51.210;2.934;2023-01-24T12:51:24;4.10;99.90
18733;DHT22;9495;51.210;2.934;2023-01-24T12:53:59;4.10;99.90
18733;DHT22;9495;51.210;2.934;2023-01-24T12:56:36;4.00;99.90
18733;DHT22;9495;51.210;2.934;2023-01-24T12:59:10;4.10;99.90
18733;DHT22;9495;51.210;2.934;2023-01-24T13:02:03;4.10;99.90
18733;DHT22;9495;51.210;2.934;2023-01-24T13:04:41;4.10;99.90
18733;DHT22;9495;51.210;2.934;2023-01-24T13:07:19;4.10;99.90
18733;DHT22;9495;51.210;2.934;2023-01-24T13:09:55;4.10;99.90
18733;DHT22;9495;51.210;2.934;2023-01-24T13:12:29;4.10;99.90
18733;DHT22;9495;51.210;2.934;2023-01-24T13:15:02;4.00;99.90
18733;DHT22;9495;51.210;2.934;2023-01-24T13:20:46;4.00;99.90
18733;DHT22;9495;51.210;2.934;2023-01-24T13:23:38;4.10;99.90
18733;DHT22;9495;51.210;2.934;2023-01-24T13:26:25;4.10;99.90
18733;DHT22;9495;51.210;2.934;2023-01-24T13:29:06;4.10;99.90
18733;DHT22;9495;51.210;2.934;2023-01-24T13:31:51;4.00;99.90
18733;DHT22;9495;51.210;2.934;2023-01-24T13:34:23;4.00;99.90
18733;DHT22;9495;51.210;2.934;2023-01-24T13:36:53;4.10;99.90
18733;DHT22;9495;51.210;2.934;2023-01-24T13:39:30;4.00;99.90
18733;DHT22;9495;51.210;2.934;2023-01-24T13:42:04;4.00;99.90
18733;DHT22;9495;51.210;2.934;2023-01-24T13:44:33;4.00;99.90
18733;DHT22;9495;51.210;2.934;2023-01-24T13:47:24;4.00;99.90
18733;DHT22;9495;51.210;2.934;2023-01-24T13:50:13;4.00;99.90
18733;DHT22;9495;51.210;2.934;2023-01-24T13:52:50;4.00;99.90
18733;DHT22;9495;51.210;2.934;2023-01-24T13:58:25;4.00;99.90
18733;DHT22;9495;51.210;2.934;2023-01-24T14:00:56;4.00;99.90
18733;DHT22;9495;51.210;2.934;2023-01-24T14:03:32;4.00;99.90
18733;DHT22;9495;51.210;2.934;2023-01-24T14:06:07;4.00;99.90
18733;DHT22;9495;51.210;2.934;2023-01-24T14:08:38;3.90;99.90
18733;DHT22;9495;51.210;2.934;2023-01-24T14:14:36;4.00;99.90
18733;DHT22;9495;51.210;2.934;2023-01-24T14:23:14;4.00;99.90
18733;DHT22;9495;51.210;2.934;2023-01-24T14:25:53;3.90;99.90
18733;DHT22;9495;51.210;2.934;2023-01-24T14:28:25;4.00;99.90
18733;DHT22;9495;51.210;2.934;2023-01-24T14:30:58;4.00;99.90
18733;DHT22;9495;51.210;2.934;2023-01-24T14:33:33;3.90;99.90
18733;DHT22;9495;51.210;2.934;2023-01-24T14:36:13;3.90;99.90
18733;DHT22;9495;51.210;2.934;2023-01-24T14:38:43;3.90;99.90
18733;DHT22;9495;51.210;2.934;2023-01-24T14:41:20;3.80;99.90
18733;DHT22;9495;51.210;2.934;2023-01-24T14:43:49;3.90;99.90
18733;DHT22;9495;51.210;2.934;2023-01-24T14:46:21;3.80;99.90
18733;DHT22;9495;51.210;2.934;2023-01-24T14:48:51;3.90;99.90
18733;DHT22;9495;51.210;2.934;2023-01-24T14:51:23;3.90;99.90
18733;DHT22;9495;51.210;2.934;2023-01-24T14:53:53;3.90;99.90
18733;DHT22;9495;51.210;2.934;2023-01-24T14:56:22;3.90;99.90
18733;DHT22;9495;51.210;2.934;2023-01-24T14:58:50;3.90;99.90
18733;DHT22;9495;51.210;2.934;2023-01-24T15:01:28;3.90;99.90
18733;DHT22;9495;51.210;2.934;2023-01-24T15:03:58;3.90;99.90
18733;DHT22;9495;51.210;2.934;2023-01-24T15:06:28;3.90;99.90
18733;DHT22;9495;51.210;2.934;2023-01-24T15:08:58;3.90;99.90
18733;DHT22;9495;51.210;2.934;2023-01-24T15:11:28;3.90;99.90
18733;DHT22;9495;51.210;2.934;2023-01-24T15:13:58;3.90;99.90
18733;DHT22;9495;51.210;2.934;2023-01-24T15:16:33;3.80;99.90
18733;DHT22;9495;51.210;2.934;2023-01-24T15:19:04;3.80;99.90
18733;DHT22;9495;51.210;2.934;2023-01-24T15:21:37;3.80;99.90
18733;DHT22;9495;51.210;2.934;2023-01-24T15:24:18;3.80;99.90
18733;DHT22;9495;51.210;2.934;2023-01-24T15:26:47;3.70;99.90
18733;DHT22;9495;51.210;2.934;2023-01-24T15:29:49;3.80;99.90
18733;DHT22;9495;51.210;2.934;2023-01-24T15:32:37;3.80;99.90
18733;DHT22;9495;51.210;2.934;2023-01-24T15:35:28;3.80;99.90
18733;DHT22;9495;51.210;2.934;2023-01-24T15:38:26;3.80;99.90
18733;DHT22;9495;51.210;2.934;2023-01-24T15:41:13;3.80;99.90
18733;DHT22;9495;51.210;2.934;2023-01-24T15:43:48;3.80;99.90
18733;DHT22;9495;51.210;2.934;2023-01-24T15:46:27;3.80;99.90
18733;DHT22;9495;51.210;2.934;2023-01-24T15:49:29;3.90;99.90
18733;DHT22;9495;51.210;2.934;2023-01-24T15:52:19;3.90;99.90
18733;DHT22;9495;51.210;2.934;2023-01-24T15:54:52;3.80;99.90
18733;DHT22;9495;51.210;2.934;2023-01-24T15:57:25;3.60;99.90
18733;DHT22;9495;51.210;2.934;2023-01-24T15:59:57;3.70;99.90
18733;DHT22;9495;51.210;2.934;2023-01-24T16:02:27;3.70;99.90
18733;DHT22;9495;51.210;2.934;2023-01-24T16:04:55;3.70;99.90
18733;DHT22;9495;51.210;2.934;2023-01-24T16:07:25;3.70;99.90
18733;DHT22;9495;51.210;2.934;2023-01-24T16:09:55;3.70;99.90
18733;DHT22;9495;51.210;2.934;2023-01-24T16:12:24;3.80;99.90
18733;DHT22;9495;51.210;2.934;2023-01-24T16:14:55;3.70;99.90
18733;DHT22;9495;51.210;2.934;2023-01-24T16:17:35;3.80;99.90
18733;DHT22;9495;51.210;2.934;2023-01-24T16:20:16;3.80;99.90
18733;DHT22;9495;51.210;2.934;2023-01-24T16:22:45;3.70;99.90
18733;DHT22;9495;51.210;2.934;2023-01-24T16:25:16;3.70;99.90
18733;DHT22;9495;51.210;2.934;2023-01-24T16:27:46;3.70;99.90
18733;DHT22;9495;51.210;2.934;2023-01-24T16:30:16;3.60;99.90
18733;DHT22;9495;51.210;2.934;2023-01-24T16:32:45;3.50;99.90
18733;DHT22;9495;51.210;2.934;2023-01-24T16:35:13;3.50;99.90
18733;DHT22;9495;51.210;2.934;2023-01-24T16:37:42;3.60;99.90
18733;DHT22;9495;51.210;2.934;2023-01-24T16:40:11;3.50;99.90
18733;DHT22;9495;51.210;2.934;2023-01-24T16:42:43;3.60;99.90
18733;DHT22;9495;51.210;2.934;2023-01-24T16:45:13;3.60;99.90
18733;DHT22;9495;51.210;2.934;2023-01-24T16:47:43;3.50;99.90
18733;DHT22;9495;51.210;2.934;2023-01-24T16:50:12;3.50;99.90
18733;DHT22;9495;51.210;2.934;2023-01-24T16:52:43;3.50;99.90
18733;DHT22;9495;51.210;2.934;2023-01-24T16:55:12;3.50;99.90
18733;DHT22;9495;51.210;2.934;2023-01-24T16:57:41;3.50;99.90